Time;durP1;ratioP1;P1;durP2;ratioP2;P2;SDS_P1;SDS_P2;PMS_P1;PMS_P2;Temp;Humidity;BMP_temperature;BMP_pressure;BME280_temperature;BME280_humidity;BME280_pressure;Samples;Min_cycle;Max_cycle;Signal;HPM_P1;HPM_P2
2021/05/13 00:01:22;;;;;;;0.10;0.10;;;11.10;74.00;;;;;;5076232;28;20439;-79
2021/05/13 00:03:49;;;;;;;0.20;0.20;;;11.10;74.10;;;;;;5095561;28;20398;-79
2021/05/13 00:06:15;;;;;;;0.43;0.20;;;11.00;74.20;;;;;;5076826;28;20082;-80
2021/05/13 00:08:41;;;;;;;1.00;0.30;;;11.10;74.40;;;;;;5093061;28;20033;-79
2021/05/13 00:11:08;;;;;;;0.20;0.20;;;11.00;74.40;;;;;;5098454;28;20040;-79
2021/05/13 00:13:36;;;;;;;0.40;0.30;;;11.00;74.50;;;;;;5096665;28;20028;-79
2021/05/13 00:16:02;;;;;;;0.10;0.10;;;11.00;74.60;;;;;;5063544;28;20511;-79
2021/05/13 00:18:28;;;;;;;0.30;0.30;;;10.90;74.60;;;;;;5062631;28;20071;-79
2021/05/13 00:20:54;;;;;;;0.15;0.13;;;10.90;74.60;;;;;;5047725;28;20038;-79
2021/05/13 00:23:21;;;;;;;0.43;0.30;;;10.90;74.60;;;;;;5099355;28;20047;-79
2021/05/13 00:25:49;;;;;;;0.35;0.30;;;10.90;74.60;;;;;;5098173;28;20048;-79
2021/05/13 00:28:15;;;;;;;0.10;0.10;;;10.90;74.70;;;;;;5064839;28;20127;-79
2021/05/13 00:30:41;;;;;;;0.55;0.20;;;10.90;74.70;;;;;;5083246;28;20067;-80
2021/05/13 00:33:07;;;;;;;0.60;0.30;;;10.90;74.80;;;;;;5080427;28;20077;-79
2021/05/13 00:35:33;;;;;;;0.45;0.30;;;10.70;74.70;;;;;;5098248;28;20093;-79
2021/05/13 00:37:59;;;;;;;0.50;0.20;;;10.80;74.80;;;;;;5095774;28;20047;-79
2021/05/13 00:40:25;;;;;;;0.20;0.20;;;10.80;74.80;;;;;;5079407;28;20052;-79
2021/05/13 00:42:51;;;;;;;0.20;0.20;;;10.80;74.80;;;;;;5095669;28;20051;-79
2021/05/13 00:45:18;;;;;;;0.25;0.20;;;10.70;74.80;;;;;;5076894;28;20036;-79
2021/05/13 00:48:01;;;;;;;0.73;0.30;;;10.80;74.90;;;;;;5095563;28;20040;-79
2021/05/13 00:50:28;;;;;;;0.17;0.17;;;10.80;74.90;;;;;;5076723;28;20041;-79
2021/05/13 00:52:54;;;;;;;0.45;0.30;;;10.70;75.00;;;;;;5095329;28;20040;-79
2021/05/13 00:55:21;;;;;;;0.20;0.20;;;10.60;75.00;;;;;;5093356;28;20043;-79
2021/05/13 00:57:50;;;;;;;0.40;0.20;;;10.70;75.20;;;;;;5043520;28;20081;-79
2021/05/13 01:00:32;;;;;;;1.20;0.57;;;10.60;75.20;;;;;;5077807;28;20043;-79
2021/05/13 01:02:59;;;;;;;0.50;0.28;;;10.60;75.40;;;;;;5095409;28;20354;-79
2021/05/13 01:05:26;;;;;;;0.20;0.20;;;10.60;75.40;;;;;;5043213;28;20089;-79
2021/05/13 01:07:51;;;;;;;0.22;0.22;;;10.60;75.50;;;;;;5091564;28;20033;-79
2021/05/13 01:10:18;;;;;;;0.20;0.20;;;10.50;75.40;;;;;;5077691;28;20071;-79
2021/05/13 01:12:45;;;;;;;0.50;0.50;;;10.60;75.60;;;;;;5094375;28;20119;-79
2021/05/13 01:15:21;;;;;;;0.30;0.30;;;10.50;75.50;;;;;;5076384;28;20039;-79
2021/05/13 01:18:13;;;;;;;0.20;0.20;;;10.50;75.70;;;;;;5076712;28;20043;-79
2021/05/13 01:20:34;;;;;;;0.30;0.20;;;10.50;76.30;;;;;;5092724;28;20044;-79
2021/05/13 01:23:00;;;;;;;0.20;0.20;;;10.50;75.70;;;;;;5076409;28;20040;-80
2021/05/13 01:25:28;;;;;;;0.20;0.20;;;10.40;75.70;;;;;;5076253;28;20067;-80
2021/05/13 01:28:01;;;;;;;0.30;0.20;;;10.40;75.70;;;;;;5059248;28;20040;-79
2021/05/13 01:30:29;;;;;;;0.22;0.20;;;10.40;75.80;;;;;;5094172;28;20137;-80
2021/05/13 01:33:00;;;;;;;0.25;0.22;;;10.40;75.90;;;;;;5058279;28;20065;-80
2021/05/13 01:35:26;;;;;;;0.20;0.20;;;10.40;75.90;;;;;;5058002;28;20051;-80
2021/05/13 01:38:03;;;;;;;0.20;0.20;;;10.30;75.90;;;;;;5093130;28;20531;-80
2021/05/13 01:40:29;;;;;;;0.30;0.20;;;10.30;76.10;;;;;;5075239;28;20512;-80
2021/05/13 01:42:55;;;;;;;0.32;0.10;;;10.40;76.10;;;;;;5093578;28;20044;-80
2021/05/13 01:45:20;;;;;;;0.52;0.20;;;10.30;76.10;;;;;;5073017;28;20041;-80
2021/05/13 01:47:46;;;;;;;0.20;0.20;;;10.30;76.80;;;;;;5074917;28;20036;-79
2021/05/13 01:50:12;;;;;;;0.35;0.17;;;10.30;76.20;;;;;;5074027;28;20040;-80
2021/05/13 01:52:38;;;;;;;0.20;0.20;;;10.30;76.20;;;;;;5074078;28;20489;-79
2021/05/13 01:55:04;;;;;;;0.20;0.20;;;10.40;76.30;;;;;;5092156;28;20478;-80
2021/05/13 01:57:29;;;;;;;0.10;0.10;;;10.30;76.30;;;;;;5092111;28;20040;-80
2021/05/13 01:59:55;;;;;;;0.17;0.17;;;10.20;76.30;;;;;;5092031;28;20035;-80
2021/05/13 02:02:21;;;;;;;0.40;0.10;;;10.20;77.00;;;;;;5092556;28;20032;-80
2021/05/13 02:04:48;;;;;;;0.22;0.22;;;10.30;76.50;;;;;;5057581;28;20036;-80
2021/05/13 02:07:14;;;;;;;0.55;0.17;;;10.20;76.50;;;;;;5057434;28;20046;-79
2021/05/13 02:09:41;;;;;;;0.20;0.20;;;10.20;76.50;;;;;;5075709;28;20481;-80
2021/05/13 02:12:07;;;;;;;0.15;0.15;;;10.10;76.50;;;;;;5060849;28;20040;-80
2021/05/13 02:14:33;;;;;;;0.30;0.30;;;10.20;76.70;;;;;;5077244;28;20050;-80
2021/05/13 02:16:59;;;;;;;0.20;0.20;;;10.10;76.70;;;;;;5043086;28;20127;-80
2021/05/13 02:19:25;;;;;;;0.20;0.20;;;10.10;76.70;;;;;;5043800;28;20040;-80
2021/05/13 02:21:50;;;;;;;0.17;0.17;;;10.10;76.80;;;;;;5077125;28;20055;-80
2021/05/13 02:24:16;;;;;;;0.28;0.28;;;10.00;76.80;;;;;;5094948;28;20040;-79
2021/05/13 02:26:41;;;;;;;0.20;0.20;;;10.10;76.90;;;;;;5074324;28;20548;-80
2021/05/13 02:29:07;;;;;;;0.20;0.20;;;10.10;77.00;;;;;;5073038;28;20040;-79
2021/05/13 02:31:33;;;;;;;0.30;0.20;;;10.00;77.00;;;;;;5077639;28;20048;-80
2021/05/13 02:33:59;;;;;;;0.38;0.30;;;10.00;77.10;;;;;;5077027;28;20040;-81
2021/05/13 02:36:24;;;;;;;0.30;0.30;;;10.00;77.10;;;;;;5073384;28;20041;-80
2021/05/13 02:38:50;;;;;;;0.68;0.20;;;10.00;77.20;;;;;;5076109;28;20036;-80
2021/05/13 02:41:16;;;;;;;0.20;0.20;;;9.90;77.10;;;;;;5060392;28;20040;-80
2021/05/13 02:43:42;;;;;;;0.60;0.22;;;9.90;77.20;;;;;;5077103;28;20036;-80
2021/05/13 02:46:08;;;;;;;0.17;0.17;;;9.90;77.30;;;;;;5077015;28;20048;-80
2021/05/13 02:48:34;;;;;;;0.60;0.30;;;10.00;77.50;;;;;;5043650;28;20040;-80
2021/05/13 02:51:00;;;;;;;0.20;0.20;;;9.80;77.30;;;;;;5095124;28;20036;-80
2021/05/13 02:53:26;;;;;;;0.28;0.28;;;9.80;77.40;;;;;;5076474;28;20384;-80
2021/05/13 02:55:51;;;;;;;0.32;0.30;;;9.90;77.50;;;;;;5076086;28;20036;-81
2021/05/13 02:58:17;;;;;;;0.30;0.20;;;9.80;77.50;;;;;;5074543;28;20395;-80
2021/05/13 03:03:20;;;;;;;0.35;0.20;;;9.80;77.50;;;;;;5094862;28;20128;-80
2021/05/13 03:05:46;;;;;;;0.40;0.17;;;9.80;77.50;;;;;;5074425;28;20128;-81
2021/05/13 03:08:14;;;;;;;0.20;0.20;;;9.80;77.60;;;;;;5043473;28;20036;-81
2021/05/13 03:10:44;;;;;;;0.20;0.20;;;9.80;77.70;;;;;;5095405;28;20127;-80
2021/05/13 03:13:15;;;;;;;0.20;0.20;;;9.80;77.70;;;;;;5078210;28;20486;-80
2021/05/13 03:15:41;;;;;;;0.20;0.13;;;9.80;77.80;;;;;;5076532;28;20615;-81
2021/05/13 03:18:08;;;;;;;0.28;0.20;;;9.80;77.80;;;;;;5059358;28;20079;-80
2021/05/13 03:20:38;;;;;;;0.10;0.10;;;9.70;77.80;;;;;;5074969;28;20049;-80
2021/05/13 03:23:08;;;;;;;0.22;0.20;;;9.70;77.90;;;;;;5075839;28;20052;-80
2021/05/13 03:25:35;;;;;;;0.63;0.28;;;9.70;77.90;;;;;;5044658;28;20040;-81
2021/05/13 03:28:16;;;;;;;1.50;0.20;;;9.70;77.90;;;;;;5074890;28;20462;-80
2021/05/13 03:30:45;;;;;;;0.40;0.40;;;9.70;78.00;;;;;;5095505;28;20486;-81
2021/05/13 03:33:11;;;;;;;0.32;0.20;;;9.70;78.10;;;;;;5061173;28;20049;-81
2021/05/13 03:35:37;;;;;;;0.88;0.22;;;9.60;78.10;;;;;;5084246;28;20044;-81
2021/05/13 03:38:05;;;;;;;0.82;0.40;;;9.60;78.10;;;;;;5086673;28;20041;-80
2021/05/13 03:40:31;;;;;;;0.28;0.28;;;9.70;78.20;;;;;;5086346;28;20047;-80
2021/05/13 03:42:57;;;;;;;0.20;0.20;;;9.60;78.20;;;;;;5080865;28;20419;-81
2021/05/13 03:45:24;;;;;;;0.30;0.30;;;9.60;78.20;;;;;;5078606;28;20036;-82
2021/05/13 03:47:49;;;;;;;0.20;0.20;;;9.60;78.30;;;;;;5076316;28;20047;-82
2021/05/13 03:50:18;;;;;;;0.30;0.25;;;9.60;78.30;;;;;;5076267;28;20040;-82
2021/05/13 03:52:44;;;;;;;0.40;0.40;;;9.60;78.40;;;;;;5059747;28;20419;-82
2021/05/13 03:55:11;;;;;;;0.47;0.28;;;9.50;78.40;;;;;;5076323;28;20114;-82
2021/05/13 03:57:37;;;;;;;0.25;0.25;;;9.60;78.50;;;;;;5094202;28;20169;-82
2021/05/13 04:00:08;;;;;;;0.20;0.20;;;9.60;78.40;;;;;;5093273;28;20051;-82
2021/05/13 04:02:34;;;;;;;0.20;0.20;;;9.60;78.40;;;;;;5076999;28;20028;-82
2021/05/13 04:05:01;;;;;;;0.40;0.40;;;9.60;78.40;;;;;;5059371;28;20394;-82
2021/05/13 04:07:29;;;;;;;0.25;0.25;;;9.60;78.40;;;;;;5076754;28;20127;-82
2021/05/13 04:09:55;;;;;;;0.82;0.40;;;9.60;78.40;;;;;;5095053;28;20039;-82
2021/05/13 04:12:21;;;;;;;0.30;0.30;;;9.60;78.50;;;;;;5076369;28;20489;-82
2021/05/13 04:14:47;;;;;;;0.32;0.32;;;9.60;78.50;;;;;;5076045;28;20086;-82
2021/05/13 04:17:13;;;;;;;0.40;0.40;;;9.60;78.50;;;;;;5042652;28;20559;-82
2021/05/13 04:19:38;;;;;;;0.50;0.30;;;9.60;78.50;;;;;;5076421;28;20485;-82
2021/05/13 04:22:04;;;;;;;0.32;0.32;;;9.70;78.60;;;;;;5072641;28;20399;-82
2021/05/13 04:24:30;;;;;;;0.40;0.40;;;9.70;78.50;;;;;;5095766;28;20038;-82
2021/05/13 04:26:56;;;;;;;0.30;0.30;;;9.70;78.50;;;;;;5059017;28;20440;-82
2021/05/13 04:29:22;;;;;;;0.50;0.30;;;9.70;78.50;;;;;;5075565;28;20087;-82
2021/05/13 04:31:48;;;;;;;0.38;0.22;;;9.70;78.50;;;;;;5075000;28;20036;-82
2021/05/13 04:34:13;;;;;;;0.30;0.30;;;9.70;78.60;;;;;;5075884;28;20486;-82
2021/05/13 04:36:39;;;;;;;1.27;0.47;;;9.70;78.50;;;;;;5078940;28;20135;-82
2021/05/13 04:39:06;;;;;;;0.55;0.30;;;9.80;78.60;;;;;;5071749;28;20045;-82
2021/05/13 04:41:33;;;;;;;0.77;0.40;;;9.80;78.60;;;;;;5075642;28;20044;-82
2021/05/13 04:44:01;;;;;;;0.40;0.40;;;9.80;78.60;;;;;;5076296;28;20046;-82
2021/05/13 04:46:30;;;;;;;0.30;0.30;;;9.80;78.60;;;;;;5062373;28;20036;-82
2021/05/13 04:49:15;;;;;;;0.40;0.32;;;10.00;78.70;;;;;;5076572;28;20064;-82
2021/05/13 04:51:42;;;;;;;0.30;0.30;;;9.90;78.60;;;;;;5063945;28;20043;-82
2021/05/13 04:54:07;;;;;;;0.30;0.30;;;10.00;78.60;;;;;;5059668;28;20051;-82
2021/05/13 04:56:35;;;;;;;0.35;0.30;;;10.00;78.50;;;;;;5077020;28;20032;-82
2021/05/13 04:59:01;;;;;;;0.55;0.45;;;10.10;78.50;;;;;;5060214;28;20040;-82
2021/05/13 05:01:26;;;;;;;0.30;0.30;;;10.10;78.50;;;;;;5059761;28;20371;-82
2021/05/13 05:03:52;;;;;;;1.50;0.60;;;10.10;78.50;;;;;;5095161;28;20043;-82
2021/05/13 05:06:18;;;;;;;0.40;0.40;;;10.20;78.50;;;;;;5059192;28;20447;-82
2021/05/13 05:08:44;;;;;;;0.32;0.32;;;10.20;78.40;;;;;;5061565;28;20394;-81
2021/05/13 05:11:11;;;;;;;0.40;0.40;;;10.20;78.40;;;;;;5081885;28;20048;-82
2021/05/13 05:13:37;;;;;;;0.73;0.50;;;10.30;79.10;;;;;;5081498;28;20444;-81
2021/05/13 05:16:02;;;;;;;1.42;0.70;;;10.30;78.40;;;;;;5067715;28;20093;-81
2021/05/13 05:18:28;;;;;;;1.02;0.60;;;10.40;78.40;;;;;;5079309;28;20418;-81
2021/05/13 05:20:54;;;;;;;0.68;0.55;;;10.40;78.30;;;;;;5100099;28;20040;-81
2021/05/13 05:23:20;;;;;;;1.30;0.40;;;10.50;78.30;;;;;;5085041;28;20058;-81
2021/05/13 05:25:47;;;;;;;0.40;0.30;;;10.60;78.30;;;;;;5102233;28;20444;-81
2021/05/13 05:28:13;;;;;;;0.60;0.60;;;10.60;78.20;;;;;;5099467;28;20044;-81
2021/05/13 05:30:40;;;;;;;0.40;0.40;;;10.70;78.20;;;;;;5085005;28;20099;-79
2021/05/13 05:33:08;;;;;;;1.75;0.60;;;10.80;78.20;;;;;;5052894;28;20518;-80
2021/05/13 05:35:35;;;;;;;0.43;0.30;;;10.90;78.20;;;;;;5106444;28;20044;-80
2021/05/13 05:38:02;;;;;;;0.82;0.70;;;10.90;78.20;;;;;;5091745;28;20127;-81
2021/05/13 05:40:28;;;;;;;1.08;0.60;;;11.00;78.10;;;;;;5092306;28;20040;-80
2021/05/13 05:42:54;;;;;;;0.50;0.45;;;11.00;78.10;;;;;;5089555;28;20054;-80
2021/05/13 05:45:21;;;;;;;1.02;0.82;;;11.00;78.10;;;;;;5093740;28;20056;-79
2021/05/13 05:47:49;;;;;;;1.27;1.00;;;11.10;78.10;;;;;;5115671;28;20020;-79
2021/05/13 05:50:15;;;;;;;0.80;0.70;;;11.20;78.20;;;;;;5112230;28;20032;-80
2021/05/13 05:52:41;;;;;;;0.80;0.70;;;11.20;78.20;;;;;;5078695;28;20055;-79
2021/05/13 05:55:09;;;;;;;1.35;0.98;;;11.20;78.10;;;;;;5080185;28;20052;-80
2021/05/13 05:57:35;;;;;;;1.02;0.73;;;11.20;78.20;;;;;;5095199;28;20032;-79
2021/05/13 06:00:02;;;;;;;1.85;1.10;;;11.30;78.20;;;;;;5092050;28;20043;-79
2021/05/13 06:02:27;;;;;;;1.83;1.23;;;11.30;78.20;;;;;;5096066;28;20123;-79
2021/05/13 06:04:54;;;;;;;2.00;1.25;;;11.40;78.20;;;;;;5096870;28;20047;-80
2021/05/13 06:07:20;;;;;;;1.58;0.93;;;11.50;78.20;;;;;;5079783;28;20053;-79
2021/05/13 06:09:46;;;;;;;2.03;1.08;;;11.60;78.30;;;;;;5112340;28;20032;-79
2021/05/13 06:12:13;;;;;;;0.80;0.60;;;11.60;78.20;;;;;;5095523;28;20055;-79
2021/05/13 06:14:39;;;;;;;0.52;0.52;;;11.60;78.20;;;;;;5095575;28;20039;-79
2021/05/13 06:17:05;;;;;;;0.60;0.60;;;11.70;78.20;;;;;;5061104;28;20078;-79
2021/05/13 06:19:31;;;;;;;1.73;1.10;;;11.70;78.10;;;;;;5095397;28;20036;-79
2021/05/13 06:21:57;;;;;;;0.70;0.68;;;11.80;78.00;;;;;;5078703;28;20020;-79
2021/05/13 06:24:23;;;;;;;0.50;0.50;;;11.90;78.10;;;;;;5114859;28;20092;-79
2021/05/13 06:26:58;;;;;;;0.70;0.70;;;11.90;78.00;;;;;;5096592;28;20083;-78
2021/05/13 06:29:24;;;;;;;0.88;0.85;;;11.90;78.00;;;;;;5112708;28;20044;-79
2021/05/13 06:31:50;;;;;;;0.88;0.68;;;12.00;77.90;;;;;;5097575;28;20048;-79
2021/05/13 06:34:16;;;;;;;0.90;0.85;;;12.10;77.80;;;;;;5085500;28;20027;-79
2021/05/13 06:36:42;;;;;;;1.77;1.20;;;12.30;77.80;;;;;;5097947;28;20048;-79
2021/05/13 06:39:09;;;;;;;1.33;1.00;;;12.40;77.60;;;;;;5101711;28;20048;-78
2021/05/13 06:41:34;;;;;;;1.75;1.20;;;12.50;77.50;;;;;;5117801;28;20059;-78
2021/05/13 06:44:00;;;;;;;1.38;1.00;;;12.60;77.30;;;;;;5100292;28;20028;-78
2021/05/13 06:46:26;;;;;;;1.40;0.85;;;12.70;77.00;;;;;;5100383;28;20067;-78
2021/05/13 06:48:52;;;;;;;1.00;0.90;;;12.90;76.90;;;;;;5117457;28;20031;-78
2021/05/13 06:51:19;;;;;;;1.42;1.30;;;13.00;76.80;;;;;;5118130;28;20043;-78
2021/05/13 06:53:45;;;;;;;1.48;1.08;;;13.20;76.60;;;;;;5117312;28;20036;-78
2021/05/13 06:56:12;;;;;;;2.10;1.23;;;13.30;76.40;;;;;;5114811;28;20028;-77
2021/05/13 06:58:38;;;;;;;1.15;0.82;;;13.40;76.90;;;;;;5081193;28;20040;-77
2021/05/13 07:01:04;;;;;;;1.10;1.00;;;13.70;76.30;;;;;;5117194;28;20036;-79
2021/05/13 07:03:29;;;;;;;1.10;1.00;;;13.60;76.00;;;;;;5098082;28;20040;-76
2021/05/13 07:05:55;;;;;;;2.10;1.35;;;13.80;76.00;;;;;;5095904;28;20036;-77
2021/05/13 07:08:21;;;;;;;1.70;1.20;;;13.90;75.90;;;;;;5062021;28;20057;-77
2021/05/13 07:10:47;;;;;;;1.23;1.05;;;14.10;75.70;;;;;;5065235;28;20028;-77
2021/05/13 07:13:13;;;;;;;2.65;1.27;;;14.20;75.60;;;;;;5097302;28;20051;-77
2021/05/13 07:15:38;;;;;;;2.08;1.10;;;14.30;75.40;;;;;;5096196;28;20024;-76
2021/05/13 07:18:10;;;;;;;2.28;1.30;;;14.50;75.40;;;;;;5098073;28;20115;-79
2021/05/13 07:20:37;;;;;;;1.88;1.10;;;14.50;75.10;;;;;;5099365;28;20047;-77
2021/05/13 07:23:05;;;;;;;1.30;1.10;;;14.60;75.10;;;;;;5098527;28;20020;-79
2021/05/13 07:25:32;;;;;;;1.40;0.90;;;14.80;75.00;;;;;;5103800;28;20046;-75
2021/05/13 07:27:58;;;;;;;1.75;1.25;;;14.90;74.90;;;;;;5086165;28;20092;-77
2021/05/13 07:30:24;;;;;;;1.90;1.38;;;15.00;74.70;;;;;;5110121;28;20051;-75
2021/05/13 07:32:50;;;;;;;1.15;1.05;;;15.30;74.60;;;;;;5112259;28;20044;-76
2021/05/13 07:35:18;;;;;;;1.05;0.95;;;15.30;74.40;;;;;;5088747;28;20135;-74
2021/05/13 07:37:44;;;;;;;1.63;1.30;;;15.50;74.20;;;;;;5074777;28;20037;-75
2021/05/13 07:40:11;;;;;;;2.03;1.35;;;15.60;74.10;;;;;;5059429;28;20431;-74
2021/05/13 07:42:37;;;;;;;1.52;1.08;;;15.70;74.00;;;;;;5093892;28;20089;-74
2021/05/13 07:45:04;;;;;;;1.77;1.15;;;15.80;74.10;;;;;;5075836;28;20134;-74
2021/05/13 07:47:29;;;;;;;1.10;1.00;;;15.90;74.00;;;;;;5075780;28;20044;-74
2021/05/13 07:49:55;;;;;;;1.27;1.10;;;16.00;73.90;;;;;;5072117;28;20078;-73
2021/05/13 07:52:23;;;;;;;1.10;0.82;;;16.10;73.70;;;;;;5094170;28;20036;-73
2021/05/13 07:54:49;;;;;;;1.02;0.93;;;16.20;73.60;;;;;;5093750;28;20124;-73
2021/05/13 07:57:14;;;;;;;1.92;1.10;;;16.40;73.70;;;;;;5093752;28;20485;-74
2021/05/13 07:59:40;;;;;;;1.65;1.40;;;16.50;73.60;;;;;;5093595;28;20032;-74
2021/05/13 08:02:06;;;;;;;1.50;1.25;;;16.70;73.40;;;;;;5094068;28;20059;-75
2021/05/13 08:04:32;;;;;;;2.08;1.40;;;16.80;73.20;;;;;;5073753;28;20099;-74
2021/05/13 08:06:58;;;;;;;1.58;1.30;;;17.00;72.90;;;;;;5092788;28;20044;-73
2021/05/13 08:09:24;;;;;;;1.60;1.35;;;17.00;72.80;;;;;;5093530;28;20060;-73
2021/05/13 08:11:49;;;;;;;1.50;1.40;;;17.20;72.70;;;;;;5093545;28;20393;-75
2021/05/13 08:14:15;;;;;;;1.77;1.50;;;17.30;72.60;;;;;;5093325;28;20135;-75
2021/05/13 08:16:41;;;;;;;1.75;1.52;;;17.60;72.50;;;;;;5070913;28;20051;-75
2021/05/13 08:19:07;;;;;;;1.40;1.30;;;17.50;72.40;;;;;;5093921;28;20043;-75
2021/05/13 08:21:35;;;;;;;1.27;1.00;;;17.60;72.30;;;;;;5075373;28;20040;-75
2021/05/13 08:24:01;;;;;;;2.13;1.45;;;17.70;72.30;;;;;;5073743;28;20055;-73
2021/05/13 08:26:28;;;;;;;2.13;1.42;;;17.80;72.10;;;;;;5093502;28;20036;-73
2021/05/13 08:28:55;;;;;;;2.28;1.67;;;18.00;72.00;;;;;;5075273;28;20492;-73
2021/05/13 08:31:20;;;;;;;2.17;1.33;;;18.20;71.60;;;;;;5075701;28;20032;-73
2021/05/13 08:33:46;;;;;;;1.38;1.27;;;18.30;71.40;;;;;;5072323;28;20051;-75
2021/05/13 08:36:11;;;;;;;2.45;1.50;;;18.30;71.30;;;;;;5093626;28;20044;-74
2021/05/13 08:38:37;;;;;;;1.48;1.30;;;18.50;71.30;;;;;;5093508;28;20082;-74
2021/05/13 08:41:04;;;;;;;2.28;1.50;;;18.50;71.30;;;;;;5074780;28;20105;-74
2021/05/13 08:43:30;;;;;;;1.85;1.25;;;18.70;71.20;;;;;;5100381;28;20051;-77
2021/05/13 08:45:57;;;;;;;1.25;1.00;;;18.60;71.00;;;;;;5088092;28;20047;-77
2021/05/13 08:48:25;;;;;;;2.80;1.70;;;18.80;71.00;;;;;;5104230;28;20101;-78
2021/05/13 08:50:52;;;;;;;1.85;1.35;;;18.80;70.80;;;;;;5091511;28;20062;-76
2021/05/13 08:53:18;;;;;;;1.23;1.02;;;19.00;70.60;;;;;;5070137;28;20032;-76
2021/05/13 08:55:44;;;;;;;1.67;1.38;;;19.00;70.50;;;;;;5100299;28;20055;-75
2021/05/13 08:58:10;;;;;;;2.97;1.85;;;19.10;70.30;;;;;;5103871;28;20040;-77
2021/05/13 09:00:36;;;;;;;1.30;1.20;;;19.30;69.90;;;;;;5096899;28;20040;-75
2021/05/13 09:03:01;;;;;;;1.52;1.10;;;19.40;69.60;;;;;;5034025;28;20369;-76
2021/05/13 09:05:27;;;;;;;1.48;1.17;;;19.50;69.60;;;;;;5033541;28;20064;-75
2021/05/13 09:07:54;;;;;;;1.83;1.40;;;19.70;69.50;;;;;;5013511;28;20072;-77
2021/05/13 09:10:21;;;;;;;1.50;1.40;;;19.90;69.00;;;;;;5014636;28;20137;-75
2021/05/13 09:12:50;;;;;;;1.23;1.10;;;20.20;68.40;;;;;;5028751;28;20113;-76
2021/05/13 09:15:21;;;;;;;1.45;1.20;;;20.30;68.20;;;;;;5030904;28;20064;-76
2021/05/13 09:17:50;;;;;;;1.70;1.40;;;20.30;68.50;;;;;;5030114;28;20045;-76
2021/05/13 09:20:26;;;;;;;2.20;1.50;;;20.30;67.90;;;;;;5013665;28;20029;-76
2021/05/13 09:23:08;;;;;;;1.83;1.63;;;20.40;67.60;;;;;;5029315;28;20072;-76
2021/05/13 09:25:34;;;;;;;1.02;0.93;;;20.50;67.50;;;;;;5032275;28;20060;-76
2021/05/13 09:27:59;;;;;;;1.17;1.08;;;20.60;67.20;;;;;;5019138;28;20049;-81
2021/05/13 09:30:29;;;;;;;3.20;1.30;;;20.80;67.20;;;;;;5036255;28;20084;-78
2021/05/13 09:32:59;;;;;;;1.10;1.00;;;20.90;66.80;;;;;;5039499;28;20546;-75
2021/05/13 09:35:27;;;;;;;0.95;0.88;;;21.00;66.60;;;;;;5097980;28;20039;-76
2021/05/13 09:37:55;;;;;;;1.35;1.05;;;21.10;66.30;;;;;;5060494;28;20036;-79
2021/05/13 09:40:33;;;;;;;1.25;1.15;;;21.20;66.00;;;;;;5097663;28;20062;-76
2021/05/13 09:43:19;;;;;;;1.65;1.13;;;21.10;65.90;;;;;;5077693;28;20084;-77
2021/05/13 09:45:48;;;;;;;0.70;0.70;;;21.20;66.00;;;;;;5101253;28;20101;-77
2021/05/13 09:48:40;;;;;;;2.17;0.73;;;21.40;65.90;;;;;;5073629;28;20037;-77
2021/05/13 09:51:25;;;;;;;1.40;0.77;;;21.60;65.30;;;;;;5097078;28;20127;-77
2021/05/13 09:54:15;;;;;;;0.63;0.63;;;21.70;65.00;;;;;;5075880;28;20042;-76
2021/05/13 09:56:45;;;;;;;0.60;0.60;;;21.70;64.80;;;;;;5058353;28;20044;-76
2021/05/13 09:59:24;;;;;;;0.55;0.55;;;21.70;64.80;;;;;;5093984;28;20055;-77
2021/05/13 10:01:52;;;;;;;1.92;1.00;;;21.70;64.80;;;;;;5102576;28;20039;-79
2021/05/13 10:04:18;;;;;;;1.13;0.98;;;21.60;65.10;;;;;;5103512;28;20044;-79
2021/05/13 10:06:44;;;;;;;1.00;0.73;;;21.70;64.60;;;;;;5089676;28;20044;-77
2021/05/13 10:09:15;;;;;;;0.82;0.77;;;21.80;64.40;;;;;;5099387;28;20059;-78
2021/05/13 10:11:42;;;;;;;;;;;21.90;64.30;;;;;;5100618;28;20069;-77
2021/05/13 10:14:08;;;;;;;1.23;0.85;;;22.00;64.80;;;;;;5107996;28;19956;-77
2021/05/13 10:16:35;;;;;;;1.10;1.00;;;22.10;63.80;;;;;;5101218;28;20517;-75
2021/05/13 10:19:08;;;;;;;1.27;0.70;;;22.30;63.40;;;;;;5074574;28;20040;-74
2021/05/13 10:21:36;;;;;;;0.70;0.70;;;22.30;63.00;;;;;;5091882;28;20047;-74
2021/05/13 10:24:04;;;;;;;0.77;0.70;;;22.40;62.80;;;;;;5099126;28;20044;-75
2021/05/13 10:26:49;;;;;;;1.42;1.00;;;22.50;62.50;;;;;;5094079;28;20041;-75
2021/05/13 10:29:35;;;;;;;0.70;0.70;;;22.60;62.20;;;;;;5084076;28;20440;-75
2021/05/13 10:32:10;;;;;;;1.45;1.13;;;22.70;61.70;;;;;;5070058;28;20032;-77
2021/05/13 10:34:54;;;;;;;1.00;0.90;;;22.60;61.60;;;;;;5110665;28;20104;-77
2021/05/13 10:37:38;;;;;;;1.33;1.00;;;22.60;61.80;;;;;;5089977;28;20045;-77
2021/05/13 10:40:20;;;;;;;1.30;0.90;;;22.60;61.60;;;;;;5094493;28;20474;-79
2021/05/13 10:42:56;;;;;;;2.95;1.30;;;22.50;61.40;;;;;;5065179;28;20044;-79
2021/05/13 10:45:44;;;;;;;1.13;0.95;;;22.30;61.70;;;;;;5078609;28;20039;-79
2021/05/13 10:48:33;;;;;;;1.20;0.73;;;22.20;62.10;;;;;;5066673;28;20036;-78
2021/05/13 10:51:02;;;;;;;1.25;0.90;;;22.40;61.80;;;;;;5082452;28;20069;-78
2021/05/13 10:56:35;;;;;;;2.40;1.20;;;22.60;60.80;;;;;;5083087;28;20059;-80
2021/05/13 10:59:15;;;;;;;1.88;1.20;;;22.30;60.50;;;;;;5062706;28;20036;-79
2021/05/13 11:02:06;;;;;;;2.35;1.20;;;21.90;61.80;;;;;;5084720;28;20091;-81
2021/05/13 11:04:37;;;;;;;0.90;0.90;;;21.80;61.50;;;;;;5047239;28;20043;-80
2021/05/13 11:07:16;;;;;;;1.25;0.88;;;21.50;61.60;;;;;;5043847;28;20044;-78
2021/05/13 11:09:51;;;;;;;1.23;0.80;;;21.50;61.60;;;;;;5053814;28;20051;-75
2021/05/13 11:12:34;;;;;;;0.60;0.60;;;21.70;61.30;;;;;;5107050;28;20052;-76
2021/05/13 11:15:12;;;;;;;1.38;0.68;;;21.80;61.00;;;;;;5107557;28;20086;-76
2021/05/13 11:18:03;;;;;;;1.05;0.70;;;21.90;60.60;;;;;;5105042;28;20048;-76
2021/05/13 11:20:38;;;;;;;;;;;21.90;60.20;;;;;;5065992;28;20028;-77
2021/05/13 11:23:07;;;;;;;0.60;0.60;;;22.10;60.30;;;;;;5099297;28;19918;-77
2021/05/13 11:25:52;;;;;;;1.30;0.82;;;22.10;59.80;;;;;;5080250;28;20086;-77
2021/05/13 11:28:24;;;;;;;1.38;0.70;;;22.10;59.80;;;;;;5086524;28;20050;-77
2021/05/13 11:30:52;;;;;;;0.98;0.65;;;22.40;59.30;;;;;;5077957;28;20044;-79
2021/05/13 11:33:19;;;;;;;0.60;0.60;;;22.60;58.80;;;;;;5080614;28;20036;-78
2021/05/13 11:35:46;;;;;;;0.65;0.60;;;22.70;58.40;;;;;;5095781;28;20048;-80
2021/05/13 11:38:21;;;;;;;1.10;0.70;;;22.80;57.80;;;;;;5062244;28;20040;-77
2021/05/13 11:40:50;;;;;;;0.75;0.70;;;22.60;58.20;;;;;;5109996;28;20065;-77
2021/05/13 11:43:19;;;;;;;0.30;0.30;;;22.60;57.90;;;;;;5105448;28;20398;-77
2021/05/13 11:45:47;;;;;;;0.60;0.45;;;22.40;58.10;;;;;;5109242;28;20150;-78
2021/05/13 11:48:30;;;;;;;0.88;0.60;;;22.40;58.10;;;;;;5111469;28;20032;-78
2021/05/13 11:50:59;;;;;;;1.85;0.80;;;22.30;57.80;;;;;;5082013;28;20044;-78
2021/05/13 11:53:26;;;;;;;1.35;0.60;;;22.20;57.90;;;;;;5090891;28;20048;-78
2021/05/13 11:55:52;;;;;;;1.13;0.73;;;22.20;57.90;;;;;;5111012;28;20054;-77
2021/05/13 11:58:46;;;;;;;1.17;0.70;;;22.20;57.70;;;;;;5095663;28;20135;-78
2021/05/13 12:01:36;;;;;;;1.40;0.80;;;22.30;57.40;;;;;;5104632;28;20047;-79
2021/05/13 12:04:08;;;;;;;0.90;0.68;;;22.30;57.10;;;;;;5105450;28;20032;-79
2021/05/13 12:06:44;;;;;;;0.57;0.57;;;22.20;57.40;;;;;;5099888;28;20036;-77
2021/05/13 12:09:10;;;;;;;1.05;0.70;;;22.20;57.30;;;;;;5074609;28;20036;-78
2021/05/13 12:11:36;;;;;;;0.82;0.57;;;22.20;57.10;;;;;;5094356;28;20047;-78
2021/05/13 12:14:07;;;;;;;0.65;0.57;;;22.10;57.00;;;;;;5095817;28;20039;-79
2021/05/13 12:16:33;;;;;;;0.70;0.70;;;22.00;57.00;;;;;;5075253;28;20082;-78
2021/05/13 12:19:04;;;;;;;0.82;0.70;;;21.90;57.20;;;;;;5096683;28;20040;-76
2021/05/13 12:21:31;;;;;;;1.05;0.60;;;21.90;57.00;;;;;;5081095;28;20040;-77
2021/05/13 12:23:57;;;;;;;0.57;0.57;;;21.90;57.10;;;;;;5089200;28;20037;-75
2021/05/13 12:26:26;;;;;;;1.48;0.60;;;21.90;57.00;;;;;;5102066;28;20063;-75
2021/05/13 12:28:52;;;;;;;2.97;0.80;;;22.00;56.80;;;;;;5079211;28;20044;-77
2021/05/13 12:31:31;;;;;;;1.27;0.73;;;22.10;56.50;;;;;;5080773;28;20045;-77
2021/05/13 12:34:01;;;;;;;0.73;0.70;;;22.30;56.20;;;;;;5100818;28;20127;-75
2021/05/13 12:36:27;;;;;;;0.55;0.55;;;22.40;56.10;;;;;;5095459;28;20067;-77
2021/05/13 12:38:54;;;;;;;0.80;0.80;;;22.30;56.00;;;;;;5072757;28;20497;-74
2021/05/13 12:41:25;;;;;;;0.52;0.50;;;22.30;56.10;;;;;;5094090;28;20056;-76
2021/05/13 12:44:04;;;;;;;1.08;0.90;;;22.40;56.00;;;;;;5096559;28;20058;-75
2021/05/13 12:46:30;;;;;;;1.17;0.82;;;22.40;56.40;;;;;;5072200;28;20048;-75
2021/05/13 12:48:55;;;;;;;1.35;1.10;;;22.50;55.80;;;;;;5075481;28;20047;-75
2021/05/13 12:51:24;;;;;;;0.63;0.50;;;22.60;55.50;;;;;;5074349;28;20055;-76
2021/05/13 12:53:53;;;;;;;0.75;0.75;;;22.60;55.50;;;;;;5092479;28;20044;-76
2021/05/13 12:56:30;;;;;;;1.00;0.77;;;22.60;55.60;;;;;;5041781;28;20439;-75
2021/05/13 12:59:08;;;;;;;0.98;0.80;;;22.60;55.50;;;;;;5076158;28;20032;-75
2021/05/13 13:01:36;;;;;;;0.98;0.65;;;22.60;55.50;;;;;;5074457;28;20040;-75